createdAt,value
2022-12-23T00:00:23.223Z,98089.00
2022-12-23T00:03:11.760Z,98091.20
2022-12-23T00:05:40.696Z,98090.00
2022-12-23T00:08:08.661Z,98096.60
2022-12-23T00:10:41.409Z,98098.20
2022-12-23T00:13:30.410Z,98102.20
2022-12-23T00:16:16.491Z,98108.20
2022-12-23T00:18:44.371Z,98104.60
2022-12-23T00:21:17.104Z,98106.60
2022-12-23T00:23:49.048Z,98109.40
2022-12-23T00:26:24.961Z,98107.20
2022-12-23T00:28:55.997Z,98108.80
2022-12-23T00:31:24.667Z,98109.60
2022-12-23T00:33:54.251Z,98110.80
2022-12-23T00:36:30.449Z,98107.00
2022-12-23T00:39:18.861Z,98103.00
2022-12-23T00:42:05.470Z,98109.40
2022-12-23T00:44:33.207Z,98113.40
2022-12-23T00:47:00.974Z,98100.80
2022-12-23T00:49:44.182Z,98102.20
2022-12-23T00:52:15.837Z,98104.20
2022-12-23T00:54:43.713Z,98103.80
2022-12-23T00:57:11.611Z,98095.80
2022-12-23T00:59:39.347Z,98102.40
2022-12-23T01:02:29.691Z,98101.80
2022-12-23T01:05:16.304Z,98103.80
2022-12-23T01:07:43.899Z,98107.20
2022-12-23T01:10:11.708Z,98108.00
2022-12-23T01:12:39.409Z,98110.40
2022-12-23T01:15:07.846Z,98113.00
2022-12-23T01:17:35.635Z,98110.20
2022-12-23T01:20:03.800Z,98099.60
2022-12-23T01:22:31.466Z,98100.20
2022-12-23T01:24:59.202Z,98103.00
2022-12-23T01:27:26.921Z,98102.40
2022-12-23T01:29:54.736Z,98095.20
2022-12-23T01:32:22.659Z,98086.00
2022-12-23T01:34:50.321Z,98098.60
2022-12-23T01:37:17.938Z,98097.00
2022-12-23T01:39:45.642Z,98096.00
2022-12-23T01:42:38.730Z,98099.00
2022-12-23T01:45:18.593Z,98096.60
2022-12-23T01:47:55.015Z,98097.60
2022-12-23T01:50:56.136Z,98094.00
2022-12-23T01:53:38.575Z,98096.00
2022-12-23T01:56:19.799Z,98101.00
2022-12-23T01:58:54.131Z,98105.80
2022-12-23T02:01:41.023Z,98111.80
2022-12-23T02:04:15.905Z,98116.80
2022-12-23T02:07:04.802Z,98115.80
2022-12-23T02:09:38.929Z,98115.60
2022-12-23T02:12:18.734Z,98121.00
2022-12-23T02:15:47.507Z,98107.60
2022-12-23T02:18:46.119Z,98113.80
2022-12-23T02:21:29.883Z,98114.20
2022-12-23T02:24:03.596Z,98117.20
2022-12-23T02:27:00.145Z,98117.00
2022-12-23T02:30:25.060Z,98117.20
2022-12-23T02:33:22.504Z,98112.40
2022-12-23T02:36:15.924Z,98114.40
2022-12-23T02:39:10.290Z,98118.60
2022-12-23T02:41:50.248Z,98115.80
2022-12-23T02:44:33.543Z,98110.80
2022-12-23T02:47:28.243Z,98109.20
2022-12-23T02:50:02.246Z,98107.60
2022-12-23T02:52:36.349Z,98115.00
2022-12-23T02:55:12.324Z,98118.20
2022-12-23T02:57:48.904Z,98111.60
2022-12-23T03:00:18.668Z,98116.60
2022-12-23T03:02:47.216Z,98114.00
2022-12-23T03:05:46.240Z,98113.60
2022-12-23T03:08:25.976Z,98116.40
2022-12-23T03:11:08.768Z,98114.40
2022-12-23T03:14:10.344Z,98112.40
2022-12-23T03:17:12.150Z,98115.00
2022-12-23T03:20:14.667Z,98114.80
2022-12-23T03:23:06.037Z,98118.80
2022-12-23T03:25:50.008Z,98120.00
2022-12-23T03:28:30.579Z,98123.40
2022-12-23T03:31:02.316Z,98122.00
2022-12-23T03:33:37.101Z,98113.00
2022-12-23T03:36:15.585Z,98118.80
2022-12-23T03:38:45.965Z,98120.60
2022-12-23T03:41:21.696Z,98115.00
2022-12-23T03:44:04.514Z,98109.20
2022-12-23T03:46:59.140Z,98107.80
2022-12-23T03:49:39.042Z,98101.40
2022-12-23T03:52:21.138Z,98102.00
2022-12-23T03:54:54.770Z,98099.00
2022-12-23T03:57:28.619Z,98103.60
2022-12-23T03:59:56.642Z,98097.20
2022-12-23T04:02:47.396Z,98101.60
2022-12-23T04:05:33.905Z,98107.00
2022-12-23T04:08:22.835Z,98099.20
2022-12-23T04:10:51.474Z,98104.80
2022-12-23T04:13:19.194Z,98096.80
2022-12-23T04:15:47.414Z,98091.20
2022-12-23T04:18:16.580Z,98084.20
2022-12-23T04:20:44.554Z,98082.80
2022-12-23T04:23:12.223Z,98081.80
2022-12-23T04:25:39.875Z,98083.20
2022-12-23T04:28:07.640Z,98081.00
2022-12-23T04:30:35.302Z,98081.80
2022-12-23T04:33:03.688Z,98082.00
2022-12-23T04:35:31.457Z,98079.00
2022-12-23T04:37:59.166Z,98082.00
2022-12-23T04:40:26.812Z,98083.20
2022-12-23T04:42:54.437Z,98090.20
2022-12-23T04:45:22.373Z,98089.00
2022-12-23T04:47:50.085Z,98094.60
2022-12-23T04:50:18.083Z,98096.00
2022-12-23T04:52:45.795Z,98098.20
2022-12-23T04:55:14.052Z,98096.20
2022-12-23T04:57:41.822Z,98090.00
2022-12-23T05:00:10.521Z,98083.00
2022-12-23T05:02:38.437Z,98086.60
2022-12-23T05:05:06.546Z,98086.40
2022-12-23T05:07:34.350Z,98084.20
2022-12-23T05:10:02.445Z,98080.20
2022-12-23T05:12:31.733Z,98074.80
2022-12-23T05:14:59.453Z,98074.40
2022-12-23T05:17:27.132Z,98071.80
2022-12-23T05:19:54.872Z,98069.00
2022-12-23T05:22:22.633Z,98078.40
2022-12-23T05:24:50.422Z,98067.60
2022-12-23T05:27:18.223Z,98070.20
2022-12-23T05:29:45.865Z,98065.80
2022-12-23T05:32:13.533Z,98060.00
2022-12-23T05:34:41.244Z,98061.20
2022-12-23T05:37:08.851Z,98057.60
2022-12-23T05:39:36.713Z,98059.40
2022-12-23T05:42:05.283Z,98053.20
2022-12-23T05:44:33.033Z,98053.20
2022-12-23T05:47:01.060Z,98046.40
2022-12-23T05:49:28.748Z,98053.80
2022-12-23T05:51:56.367Z,98051.20
2022-12-23T05:54:24.179Z,98048.80
2022-12-23T05:56:51.837Z,98048.60
2022-12-23T05:59:19.791Z,98058.00
2022-12-23T06:01:47.548Z,98049.80
2022-12-23T06:04:15.562Z,98051.00
2022-12-23T06:06:43.239Z,98054.60
2022-12-23T06:09:10.926Z,98048.80
2022-12-23T06:11:38.610Z,98050.60
2022-12-23T06:14:07.504Z,98050.60
2022-12-23T06:16:35.340Z,98043.20
2022-12-23T06:19:03.530Z,98047.80
2022-12-23T06:21:31.951Z,98042.20
2022-12-23T06:23:59.818Z,98038.00
2022-12-23T06:26:27.464Z,98040.60
2022-12-23T06:28:55.128Z,98046.00
2022-12-23T06:31:22.936Z,98051.00
2022-12-23T06:33:50.636Z,98052.80
2022-12-23T06:36:19.342Z,98057.00
2022-12-23T06:38:46.979Z,98062.40
2022-12-23T06:41:14.819Z,98062.80
2022-12-23T06:43:42.482Z,98068.20
2022-12-23T06:46:10.191Z,98065.20
2022-12-23T06:48:37.954Z,98074.80
2022-12-23T06:51:05.885Z,98072.20
2022-12-23T06:53:33.543Z,98068.40
2022-12-23T06:56:03.703Z,98075.60
2022-12-23T06:58:31.776Z,98075.20
2022-12-23T07:00:59.674Z,98071.20
2022-12-23T07:03:27.587Z,98070.20
2022-12-23T07:05:55.353Z,98066.60
2022-12-23T07:08:23.323Z,98076.80
2022-12-23T07:10:59.629Z,98074.20
2022-12-23T07:13:27.831Z,98078.40
2022-12-23T07:15:55.892Z,98070.80
2022-12-23T07:18:25.272Z,98077.40
2022-12-23T07:20:52.954Z,98068.40
2022-12-23T07:23:20.704Z,98071.00
2022-12-23T07:25:48.343Z,98066.80
2022-12-23T07:28:16.058Z,98065.20
2022-12-23T07:30:43.754Z,98064.20
2022-12-23T07:33:11.443Z,98067.60
2022-12-23T07:35:39.343Z,98062.40
2022-12-23T07:38:07.066Z,98059.00
2022-12-23T07:40:35.459Z,98057.00
2022-12-23T07:43:03.435Z,98064.00
2022-12-23T07:45:31.214Z,98054.60
2022-12-23T07:48:01.006Z,98052.60
2022-12-23T07:50:28.789Z,98046.00
2022-12-23T07:52:56.674Z,98055.00
2022-12-23T07:55:24.505Z,98057.40
2022-12-23T07:57:53.129Z,98051.60
2022-12-23T08:00:22.154Z,98047.20
2022-12-23T08:02:50.107Z,98047.00
2022-12-23T08:05:18.999Z,98051.80
2022-12-23T08:07:49.373Z,98047.40
2022-12-23T08:10:17.498Z,98043.40
2022-12-23T08:12:46.520Z,98042.00
2022-12-23T08:15:14.499Z,98041.40
2022-12-23T08:17:42.981Z,98041.00
2022-12-23T08:20:11.401Z,98033.40
2022-12-23T08:22:39.217Z,98029.60
2022-12-23T08:25:07.399Z,98029.00
2022-12-23T08:27:35.938Z,98031.40
2022-12-23T08:30:04.241Z,98024.40
2022-12-23T08:32:32.011Z,98033.40
2022-12-23T08:34:59.735Z,98028.80
2022-12-23T08:37:27.480Z,98028.40
2022-12-23T08:39:55.227Z,98023.20
2022-12-23T08:42:22.925Z,98027.80
2022-12-23T08:44:50.597Z,98020.60
2022-12-23T08:47:18.382Z,98019.80
2022-12-23T08:49:47.628Z,98019.40
2022-12-23T08:52:15.543Z,98022.60
2022-12-23T08:54:43.227Z,98022.60
2022-12-23T08:57:11.046Z,98019.00
2022-12-23T08:59:38.897Z,98020.20
2022-12-23T09:02:07.037Z,98011.60
2022-12-23T09:04:36.730Z,98013.00
2022-12-23T09:07:04.477Z,98013.40
2022-12-23T09:09:32.199Z,98002.60
2022-12-23T09:11:59.925Z,98003.60
2022-12-23T09:14:27.690Z,97998.20
2022-12-23T09:16:55.376Z,97995.20
2022-12-23T09:19:23.087Z,97992.60
2022-12-23T09:21:50.920Z,97990.80
2022-12-23T09:24:18.617Z,97985.80
2022-12-23T09:26:46.342Z,97988.40
2022-12-23T09:29:14.017Z,97985.00
2022-12-23T09:31:41.785Z,97978.60
2022-12-23T09:34:11.429Z,97974.40
2022-12-23T09:36:39.205Z,97970.80
2022-12-23T09:39:06.898Z,97965.20
2022-12-23T09:42:12.387Z,97967.80
2022-12-23T09:45:40.675Z,97964.80
2022-12-23T09:48:19.212Z,97955.40
2022-12-23T09:50:47.576Z,97958.40
2022-12-23T09:53:22.752Z,97962.00
2022-12-23T09:56:02.300Z,97961.60
2022-12-23T09:58:58.035Z,97962.00
2022-12-23T10:01:55.022Z,97953.00
2022-12-23T10:04:23.104Z,97953.00
2022-12-23T10:07:05.031Z,97951.60
2022-12-23T10:09:38.768Z,97949.60
2022-12-23T10:12:28.877Z,97941.60
2022-12-23T10:15:03.090Z,97947.80
2022-12-23T10:17:41.622Z,97952.80
2022-12-23T10:20:20.994Z,97957.40
2022-12-23T10:22:48.857Z,97959.00
2022-12-23T10:25:39.504Z,97956.80
2022-12-23T10:28:11.044Z,97952.20
2022-12-23T10:31:17.285Z,97943.80
2022-12-23T10:33:56.426Z,97948.60
2022-12-23T10:36:43.944Z,97950.80
2022-12-23T10:39:25.239Z,97945.60
2022-12-23T10:42:05.263Z,97945.00
2022-12-23T10:44:59.364Z,97949.20
2022-12-23T10:48:15.693Z,97948.00
2022-12-23T10:51:00.115Z,97949.40
2022-12-23T10:53:40.340Z,97950.40
2022-12-23T10:56:09.767Z,97940.40
2022-12-23T10:58:46.541Z,97931.40
2022-12-23T11:01:26.203Z,97933.80
2022-12-23T11:04:15.481Z,97934.20
2022-12-23T11:07:10.724Z,97935.60
2022-12-23T11:10:02.515Z,97943.20
2022-12-23T11:12:42.989Z,97951.40
2022-12-23T11:15:40.164Z,97944.60
2022-12-23T11:18:12.261Z,97946.00
2022-12-23T11:20:44.093Z,97939.00
2022-12-23T11:23:29.231Z,97946.20
2022-12-23T11:26:20.687Z,97947.20
2022-12-23T11:29:02.985Z,97939.80
2022-12-23T11:31:35.279Z,97948.20
2022-12-23T11:34:15.424Z,97941.20
2022-12-23T11:36:43.914Z,97945.00
2022-12-23T11:39:37.017Z,97953.80
2022-12-23T11:42:15.568Z,97954.60
2022-12-23T11:44:51.820Z,97948.60
2022-12-23T11:47:23.124Z,97948.20
2022-12-23T11:50:01.377Z,97946.60
2022-12-23T11:52:33.869Z,97948.00
2022-12-23T11:55:05.766Z,97948.00
2022-12-23T11:57:48.364Z,97947.20
2022-12-23T12:00:23.371Z,97951.80
2022-12-23T12:02:59.910Z,97954.60
2022-12-23T12:05:41.130Z,97957.20
2022-12-23T12:08:18.893Z,97957.80
2022-12-23T12:10:46.851Z,97954.00
2022-12-23T12:13:32.455Z,97958.60
2022-12-23T12:16:54.636Z,97958.20
2022-12-23T12:19:31.866Z,97958.80
2022-12-23T12:22:10.152Z,97971.80
2022-12-23T12:24:53.535Z,97970.80
2022-12-23T12:27:35.725Z,97973.80
2022-12-23T12:30:11.943Z,97974.60
2022-12-23T12:32:58.999Z,97972.20
2022-12-23T12:35:55.952Z,97975.00
2022-12-23T12:38:32.677Z,97973.00
2022-12-23T12:41:22.099Z,97969.00
2022-12-23T12:44:15.655Z,97968.80
2022-12-23T12:47:52.792Z,97970.80
2022-12-23T12:50:25.180Z,97967.80
2022-12-23T12:52:59.296Z,97976.20
2022-12-23T12:55:33.426Z,97971.20
2022-12-23T12:58:04.970Z,97970.00
2022-12-23T13:00:54.511Z,97973.20
2022-12-23T13:03:53.808Z,97974.00
2022-12-23T13:06:35.478Z,97971.40
2022-12-23T13:09:24.417Z,97980.20
2022-12-23T13:12:37.902Z,97974.60
2022-12-23T13:15:44.245Z,97973.60
2022-12-23T13:18:20.784Z,97976.40
2022-12-23T13:21:05.555Z,97977.20
2022-12-23T13:24:37.910Z,97978.00
2022-12-23T13:27:20.207Z,97979.40
2022-12-23T13:30:08.650Z,97983.60
2022-12-23T13:33:00.829Z,97986.00
2022-12-23T13:35:47.977Z,97995.20
2022-12-23T13:38:55.911Z,97991.80
2022-12-23T13:41:40.760Z,97994.60
2022-12-23T13:44:13.204Z,97998.60
2022-12-23T13:46:57.302Z,97991.40
2022-12-23T13:49:38.277Z,97995.40
2022-12-23T13:52:14.898Z,97988.00
2022-12-23T13:54:54.847Z,97987.40
2022-12-23T13:57:56.186Z,97993.60
2022-12-23T14:00:31.952Z,97995.60
2022-12-23T14:03:02.683Z,98002.60
2022-12-23T14:05:45.242Z,98000.00
2022-12-23T14:08:19.054Z,98005.00
2022-12-23T14:11:24.387Z,98014.20
2022-12-23T14:13:52.083Z,98013.40
2022-12-23T14:16:50.019Z,98007.80
2022-12-23T14:19:42.528Z,98009.60
2022-12-23T14:22:40.908Z,98015.60
2022-12-23T14:25:28.527Z,98015.00
2022-12-23T14:27:58.803Z,98013.00
2022-12-23T14:30:36.803Z,98017.60
2022-12-23T14:33:22.079Z,98013.80
2022-12-23T14:35:58.241Z,98014.20
2022-12-23T14:38:29.705Z,98026.40
2022-12-23T14:41:23.002Z,98025.80
2022-12-23T14:43:56.273Z,98019.00
2022-12-23T14:46:36.974Z,98022.40
2022-12-23T14:49:39.933Z,98017.40
2022-12-23T14:52:58.569Z,98017.60
2022-12-23T14:55:31.558Z,98018.20
2022-12-23T14:58:20.185Z,98014.60
2022-12-23T15:01:13.040Z,98010.80
2022-12-23T15:03:47.265Z,98008.60
2022-12-23T15:06:44.201Z,98012.40
2022-12-23T15:09:34.767Z,98013.60
2022-12-23T15:12:13.613Z,98013.40
2022-12-23T15:14:53.226Z,98024.20
2022-12-23T15:17:38.182Z,98024.00
2022-12-23T15:20:20.675Z,98019.00
2022-12-23T15:22:50.293Z,98012.60
2022-12-23T15:25:58.121Z,98018.80
2022-12-23T15:28:39.609Z,98019.40
2022-12-23T15:31:38.619Z,98021.40
2022-12-23T15:34:17.573Z,98016.60
2022-12-23T15:36:46.996Z,98025.60
2022-12-23T15:39:32.360Z,98026.00
2022-12-23T15:42:01.277Z,98028.20
2022-12-23T15:44:39.537Z,98018.80
2022-12-23T15:47:31.942Z,98022.00
2022-12-23T15:50:02.056Z,98016.20
2022-12-23T15:52:32.673Z,98026.20
2022-12-23T15:55:21.544Z,98027.20
2022-12-23T15:57:51.592Z,98029.00
2022-12-23T16:00:47.320Z,98027.20
2022-12-23T16:03:44.070Z,98022.80
2022-12-23T16:06:33.213Z,98025.00
2022-12-23T16:09:22.304Z,98019.20
2022-12-23T16:12:02.159Z,98024.00
2022-12-23T16:14:32.698Z,98016.40
2022-12-23T16:17:09.185Z,98023.20
2022-12-23T16:19:54.886Z,98033.40
2022-12-23T16:22:26.334Z,98033.60
2022-12-23T16:25:00.110Z,98022.40
2022-12-23T16:27:46.172Z,98015.40
2022-12-23T16:30:28.206Z,98004.40
2022-12-23T16:33:02.271Z,98012.40
2022-12-23T16:35:43.610Z,98010.60
2022-12-23T16:38:25.725Z,98010.80
2022-12-23T16:40:56.434Z,98009.20
2022-12-23T16:43:25.245Z,98009.80
2022-12-23T16:45:57.173Z,98004.00
2022-12-23T16:48:40.100Z,98003.00
2022-12-23T16:51:14.829Z,98003.00
2022-12-23T16:53:42.623Z,98010.80
2022-12-23T16:56:14.296Z,98012.00
2022-12-23T16:58:42.532Z,98014.60
2022-12-23T17:01:36.335Z,98007.20
2022-12-23T17:04:06.621Z,98013.80
2022-12-23T17:06:35.929Z,98016.80
2022-12-23T17:09:05.736Z,98010.60
2022-12-23T17:11:41.229Z,98010.20
2022-12-23T17:14:25.720Z,98021.60
2022-12-23T17:16:53.660Z,98017.20
2022-12-23T17:19:28.052Z,98024.80
2022-12-23T17:22:02.554Z,98023.20
2022-12-23T17:24:30.292Z,98021.20
2022-12-23T17:26:58.526Z,98031.40
2022-12-23T17:29:26.369Z,98031.80
2022-12-23T17:31:54.545Z,98038.40
2022-12-23T17:34:24.624Z,98037.60
2022-12-23T17:36:53.035Z,98031.80
2022-12-23T17:39:22.346Z,98030.20
2022-12-23T17:41:51.054Z,98019.40
2022-12-23T17:44:19.041Z,98025.80
2022-12-23T17:46:47.277Z,98029.40
2022-12-23T17:49:15.171Z,98037.80
2022-12-23T17:51:43.642Z,98038.60
2022-12-23T17:54:24.662Z,98036.20
2022-12-23T17:56:53.257Z,98031.20
2022-12-23T17:59:21.866Z,98027.60
2022-12-23T18:01:50.301Z,98030.80
2022-12-23T18:04:18.171Z,98034.20
2022-12-23T18:06:45.871Z,98037.00
2022-12-23T18:09:13.711Z,98036.60
2022-12-23T18:11:46.821Z,98042.40
2022-12-23T18:14:21.957Z,98044.80
2022-12-23T18:16:49.779Z,98043.00
2022-12-23T18:19:21.208Z,98052.00
2022-12-23T18:21:50.122Z,98050.20
2022-12-23T18:24:18.559Z,98052.00
2022-12-23T18:26:47.739Z,98046.60
2022-12-23T18:29:15.521Z,98049.40
2022-12-23T18:31:51.548Z,98048.20
2022-12-23T18:34:20.818Z,98053.40
2022-12-23T18:36:51.724Z,98051.00
2022-12-23T18:39:20.345Z,98056.40
2022-12-23T18:41:48.665Z,98050.00
2022-12-23T18:44:21.020Z,98043.60
2022-12-23T18:46:50.179Z,98041.20
2022-12-23T18:49:18.519Z,98034.80
2022-12-23T18:51:46.246Z,98037.80
2022-12-23T18:54:15.974Z,98037.60
2022-12-23T18:56:45.034Z,98030.40
2022-12-23T18:59:22.801Z,98034.80
2022-12-23T19:01:57.704Z,98043.00
2022-12-23T19:04:27.686Z,98034.00
2022-12-23T19:06:57.208Z,98031.60
2022-12-23T19:09:25.154Z,98037.40
2022-12-23T19:11:54.554Z,98039.60
2022-12-23T19:14:22.516Z,98035.80
2022-12-23T19:16:52.314Z,98035.20
2022-12-23T19:19:21.864Z,98042.20
2022-12-23T19:21:49.794Z,98040.20
2022-12-23T19:24:18.012Z,98039.80
2022-12-23T19:26:45.738Z,98041.80
2022-12-23T19:29:13.503Z,98042.80
2022-12-23T19:31:41.548Z,98048.80
2022-12-23T19:34:14.624Z,98053.20
2022-12-23T19:36:44.280Z,98053.00
2022-12-23T19:39:16.869Z,98048.20
2022-12-23T19:41:45.387Z,98042.80
2022-12-23T19:44:14.030Z,98039.40
2022-12-23T19:46:41.997Z,98040.80
2022-12-23T19:49:19.333Z,98038.00
2022-12-23T19:51:48.917Z,98029.00
2022-12-23T19:54:18.615Z,98026.40
2022-12-23T19:56:46.316Z,98022.80
2022-12-23T19:59:14.473Z,98018.40
2022-12-23T20:01:42.497Z,98010.40
2022-12-23T20:04:10.964Z,98008.40
2022-12-23T20:06:40.895Z,98008.80
2022-12-23T20:09:12.787Z,97994.40
2022-12-23T20:11:46.703Z,97985.20
2022-12-23T20:14:18.522Z,97976.40
2022-12-23T20:16:48.360Z,97976.20
2022-12-23T20:19:17.675Z,97973.40
2022-12-23T20:21:45.872Z,97972.80
2022-12-23T20:24:15.917Z,97970.40
2022-12-23T20:26:44.065Z,97966.60
2022-12-23T20:29:12.070Z,97964.80
2022-12-23T20:31:40.407Z,97967.40
2022-12-23T20:34:15.497Z,97982.00
2022-12-23T20:36:44.477Z,97983.00
2022-12-23T20:39:12.290Z,97979.60
2022-12-23T20:41:40.068Z,97980.00
2022-12-23T20:46:55.467Z,97983.20
2022-12-23T20:49:23.289Z,97986.80
2022-12-23T20:51:50.893Z,97982.60
2022-12-23T20:54:18.601Z,97978.60
2022-12-23T20:56:46.237Z,97969.20
2022-12-23T20:59:13.902Z,97964.20
2022-12-23T21:01:42.152Z,97976.40
2022-12-23T21:04:16.029Z,97978.00
2022-12-23T21:06:45.452Z,97971.60
2022-12-23T21:09:15.647Z,97975.80
2022-12-23T21:11:46.720Z,97968.00
2022-12-23T21:14:16.092Z,97971.80
2022-12-23T21:16:44.450Z,97968.80
2022-12-23T21:19:19.730Z,97970.80
2022-12-23T21:21:49.245Z,97978.00
2022-12-23T21:24:18.531Z,97983.40
2022-12-23T21:26:55.730Z,97983.80
2022-12-23T21:29:24.616Z,97982.60
2022-12-23T21:31:52.557Z,97980.60
2022-12-23T21:34:20.383Z,97986.20
2022-12-23T21:36:48.209Z,97980.40
2022-12-23T21:39:16.532Z,97981.60
2022-12-23T21:41:44.435Z,97983.60
2022-12-23T21:44:16.109Z,97977.60
2022-12-23T21:46:43.855Z,97979.80
2022-12-23T21:49:12.012Z,97980.60
2022-12-23T21:51:41.762Z,97985.40
2022-12-23T21:54:11.678Z,97975.80
2022-12-23T21:56:41.071Z,97972.00
2022-12-23T21:59:13.681Z,97975.00
2022-12-23T22:01:43.443Z,97971.80
2022-12-23T22:04:11.674Z,97971.40
2022-12-23T22:06:43.848Z,97971.20
2022-12-23T22:09:17.620Z,97969.40
2022-12-23T22:11:46.881Z,97963.40
2022-12-23T22:14:17.861Z,97961.20
2022-12-23T22:16:45.703Z,97959.20
2022-12-23T22:19:13.859Z,97960.80
2022-12-23T22:21:42.611Z,97955.80
2022-12-23T22:24:11.128Z,97949.20
2022-12-23T22:26:40.824Z,97949.60
2022-12-23T22:29:10.875Z,97944.60
2022-12-23T22:31:53.059Z,97945.40
2022-12-23T22:34:23.236Z,97945.40
2022-12-23T22:36:51.079Z,97944.80
2022-12-23T22:39:21.834Z,97946.60
2022-12-23T22:41:51.296Z,97949.20
2022-12-23T22:44:20.233Z,97944.40
2022-12-23T22:46:48.526Z,97942.60
2022-12-23T22:49:17.583Z,97937.40
2022-12-23T22:51:45.404Z,97938.80
2022-12-23T22:54:14.290Z,97932.60
2022-12-23T22:56:42.525Z,97932.80
2022-12-23T22:59:21.054Z,97936.40
2022-12-23T23:01:51.567Z,97934.80
2022-12-23T23:04:19.739Z,97924.20
2022-12-23T23:06:47.480Z,97919.00
2022-12-23T23:09:19.189Z,97913.00
2022-12-23T23:11:47.005Z,97910.00
2022-12-23T23:14:15.697Z,97909.00
2022-12-23T23:16:43.477Z,97908.80
2022-12-23T23:19:12.186Z,97905.00
2022-12-23T23:21:40.367Z,97900.80
2022-12-23T23:24:08.597Z,97905.00
2022-12-23T23:26:36.289Z,97905.80
2022-12-23T23:29:04.343Z,97901.00
2022-12-23T23:31:41.916Z,97897.00
2022-12-23T23:34:11.788Z,97887.80
2022-12-23T23:36:40.100Z,97888.60
2022-12-23T23:39:08.573Z,97887.40
2022-12-23T23:41:36.315Z,97886.40
2022-12-23T23:44:04.778Z,97882.80
2022-12-23T23:46:33.762Z,97879.20
2022-12-23T23:49:01.767Z,97873.40
2022-12-23T23:51:29.791Z,97874.20
2022-12-23T23:53:57.568Z,97869.20
2022-12-23T23:56:27.284Z,97862.20
2022-12-23T23:58:56.555Z,97860.40
